Time;durP1;ratioP1;P1;durP2;ratioP2;P2;SDS_P1;SDS_P2;PMS_P1;PMS_P2;Temp;Humidity;BMP_temperature;BMP_pressure;BME280_temperature;BME280_humidity;BME280_pressure;Samples;Min_cycle;Max_cycle;Signal;HPM_P1;HPM_P2
2020/12/24 00:02:06;;;;;;;8.60;6.07;;;;;;;22.00;40.49;95289.66;5040199;28;20037;-75
2020/12/24 00:04:32;;;;;;;8.80;6.22;;;;;;;21.98;40.53;95283.22;5024603;28;20797;-75
2020/12/24 00:06:57;;;;;;;8.65;6.05;;;;;;;21.94;40.48;95288.91;5024878;28;20057;-76
2020/12/24 00:09:23;;;;;;;8.60;5.82;;;;;;;21.83;40.75;95271.81;5025012;28;20025;-76
2020/12/24 00:11:48;;;;;;;9.52;6.25;;;;;;;21.82;40.53;95270.34;5039885;28;20076;-75
2020/12/24 00:14:13;;;;;;;8.75;6.60;;;;;;;21.90;40.65;95293.09;5023246;28;20112;-75
2020/12/24 00:16:39;;;;;;;9.40;6.55;;;;;;;21.84;40.59;95283.44;5023618;28;20509;-75
2020/12/24 00:19:05;;;;;;;8.90;6.80;;;;;;;21.84;40.88;95284.19;5023312;28;20033;-76
2020/12/24 00:21:35;;;;;;;10.40;7.18;;;;;;;21.83;40.61;95281.97;5023229;28;20037;-75
2020/12/24 00:24:00;;;;;;;9.82;6.82;;;;;;;21.83;41.14;95281.97;5024159;28;20031;-75
2020/12/24 00:26:26;;;;;;;9.80;6.75;;;;;;;21.81;40.74;95278.97;5039430;28;20045;-75
2020/12/24 00:28:51;;;;;;;10.25;7.07;;;;;;;21.79;40.76;95270.59;5024398;28;20034;-76
2020/12/24 00:31:17;;;;;;;9.70;6.68;;;;;;;21.67;40.75;95264.41;5022917;28;20552;-76
2020/12/24 00:33:42;;;;;;;10.27;6.70;;;;;;;21.74;40.82;95282.19;5022211;28;20040;-75
2020/12/24 00:36:08;;;;;;;9.05;6.65;;;;;;;21.73;40.87;95278.72;5024428;28;20063;-74
2020/12/24 00:38:33;;;;;;;9.80;6.70;;;;;;;21.71;40.86;95275.03;5023619;28;20044;-76
2020/12/24 00:40:58;;;;;;;8.95;7.00;;;;;;;21.66;40.85;95264.91;5023580;28;20482;-76
2020/12/24 00:43:24;;;;;;;8.98;6.05;;;;;;;21.65;40.93;95266.13;5024764;28;20033;-76
2020/12/24 00:45:49;;;;;;;9.77;6.50;;;;;;;21.66;40.99;95286.63;5022039;28;20013;-77
2020/12/24 00:48:15;;;;;;;7.90;6.22;;;;;;;21.66;40.97;95267.63;5023749;28;20390;-74
2020/12/24 00:50:40;;;;;;;10.70;7.32;;;;;;;21.64;40.92;95275.50;5022007;28;20051;-75
2020/12/24 00:53:05;;;;;;;10.27;6.90;;;;;;;21.63;41.00;95276.75;5023696;28;20029;-75
2020/12/24 00:55:31;;;;;;;10.50;7.57;;;;;;;21.61;41.14;95288.13;5039158;28;20038;-75
2020/12/24 00:57:56;;;;;;;9.80;6.63;;;;;;;21.60;40.95;95285.88;5022443;28;20456;-75
2020/12/24 01:00:22;;;;;;;9.68;7.03;;;;;;;21.55;40.86;95287.34;5022837;28;20452;-75
2020/12/24 01:02:47;;;;;;;10.70;6.90;;;;;;;21.46;41.20;95270.50;5022344;28;20033;-76
2020/12/24 01:05:12;;;;;;;10.88;7.30;;;;;;;21.49;41.02;95274.97;5022843;28;20029;-75
2020/12/24 01:07:38;;;;;;;9.98;6.97;;;;;;;21.49;41.12;95277.69;5038460;28;20050;-75
2020/12/24 01:10:06;;;;;;;11.15;7.45;;;;;;;21.46;41.08;95275.94;5023555;28;20030;-75
2020/12/24 01:12:31;;;;;;;9.32;6.63;;;;;;;21.50;41.07;95288.06;5021942;28;20045;-75
2020/12/24 01:14:57;;;;;;;9.88;6.65;;;;;;;21.49;41.25;95285.84;5022022;28;20029;-75
2020/12/24 01:17:22;;;;;;;9.07;6.85;;;;;;;21.48;41.27;95281.66;5020389;28;20046;-75
2020/12/24 01:19:48;;;;;;;10.70;7.28;;;;;;;21.45;41.32;95274.47;5037972;28;20029;-76
2020/12/24 01:22:13;;;;;;;10.07;7.25;;;;;;;21.44;41.24;95278.41;5021540;28;20026;-75
2020/12/24 01:24:38;;;;;;;11.55;7.45;;;;;;;21.45;41.18;95274.47;5038109;28;20029;-75
2020/12/24 01:27:04;;;;;;;10.10;6.95;;;;;;;21.39;41.16;95260.13;5023394;28;21443;-74
2020/12/24 01:29:30;;;;;;;9.00;6.63;;;;;;;21.42;41.21;95264.56;5021581;28;20491;-75
2020/12/24 01:31:55;;;;;;;9.30;6.80;;;;;;;21.36;41.47;95255.66;5021397;28;20108;-74
2020/12/24 01:34:21;;;;;;;9.23;7.28;;;;;;;21.37;41.12;95262.56;5021606;28;20559;-76
2020/12/24 01:36:47;;;;;;;11.02;7.40;;;;;;;21.38;41.43;95250.47;5023037;28;20038;-76
2020/12/24 01:39:13;;;;;;;10.10;7.15;;;;;;;21.38;41.54;95253.19;5022115;28;20029;-74
2020/12/24 01:41:39;;;;;;;11.70;7.53;;;;;;;21.37;41.54;95246.25;5053900;28;20406;-76
2020/12/24 01:44:05;;;;;;;10.68;7.05;;;;;;;21.33;41.44;95232.19;5021106;28;20147;-76
2020/12/24 01:46:31;;;;;;;10.00;6.90;;;;;;;21.34;41.41;95236.38;5022768;28;20041;-75
2020/12/24 01:48:56;;;;;;;10.88;7.22;;;;;;;21.34;41.54;95236.38;5023558;28;20033;-75
2020/12/24 01:51:29;;;;;;;9.98;7.13;;;;;;;21.28;41.56;95226.72;5020712;28;20018;-76
2020/12/24 01:53:57;;;;;;;10.02;7.30;;;;;;;21.31;41.23;95237.34;5021223;28;20055;-75
2020/12/24 01:56:22;;;;;;;9.65;7.20;;;;;;;21.29;41.48;95250.69;5021879;28;20044;-76
2020/12/24 01:58:49;;;;;;;10.27;7.50;;;;;;;21.30;41.39;95252.19;5020818;28;20467;-75
2020/12/24 02:01:15;;;;;;;9.93;6.90;;;;;;;21.25;41.20;95236.59;5037282;28;20033;-74
2020/12/24 02:03:40;;;;;;;11.02;7.57;;;;;;;21.24;41.47;95243.28;5036706;28;20042;-75
2020/12/24 02:06:05;;;;;;;10.90;7.53;;;;;;;21.27;41.75;95250.44;5023111;28;20022;-74
2020/12/24 02:08:32;;;;;;;9.60;7.00;;;;;;;21.17;41.48;95227.44;5023269;28;20045;-75
2020/12/24 02:10:58;;;;;;;10.05;7.10;;;;;;;21.19;41.81;95230.41;5022541;28;20567;-73
2020/12/24 02:13:23;;;;;;;9.95;7.65;;;;;;;21.25;41.60;95239.31;5019802;28;20037;-75
2020/12/24 02:15:49;;;;;;;10.02;7.40;;;;;;;21.23;41.55;95233.63;5024244;28;20026;-75
2020/12/24 02:18:14;;;;;;;11.15;7.55;;;;;;;21.23;41.56;95235.63;5053826;28;20025;-75
2020/12/24 02:20:43;;;;;;;11.73;7.40;;;;;;;21.18;41.62;95228.94;5022557;28;20039;-74
2020/12/24 02:23:09;;;;;;;10.15;7.60;;;;;;;21.17;41.45;95230.16;5022592;28;20408;-76
2020/12/24 02:25:35;;;;;;;11.15;7.50;;;;;;;21.01;41.45;95209.13;5037740;28;20033;-75
2020/12/24 02:28:00;;;;;;;10.82;7.50;;;;;;;21.00;41.76;95207.66;5004146;28;20037;-75
2020/12/24 02:30:25;;;;;;;11.57;7.90;;;;;;;21.19;41.39;95235.09;5037361;28;20092;-75
2020/12/24 02:32:51;;;;;;;11.52;7.78;;;;;;;21.17;41.76;95230.16;5022233;28;20029;-74
2020/12/24 02:35:16;;;;;;;10.63;7.57;;;;;;;21.15;41.28;95235.34;5021454;28;20021;-76
2020/12/24 02:37:42;;;;;;;10.77;7.43;;;;;;;21.15;41.61;95235.34;5021544;28;20468;-74
2020/12/24 02:40:07;;;;;;;11.48;7.28;;;;;;;21.12;41.80;95233.59;5055904;28;20034;-75
2020/12/24 02:42:33;;;;;;;10.57;7.55;;;;;;;21.14;41.51;95228.41;5021386;28;20042;-74
2020/12/24 02:44:58;;;;;;;10.48;7.22;;;;;;;21.13;41.53;95232.34;5022391;28;20033;-75
2020/12/24 02:47:24;;;;;;;9.75;7.13;;;;;;;21.06;41.56;95211.13;5020322;28;20418;-74
2020/12/24 02:49:49;;;;;;;10.95;7.35;;;;;;;21.13;41.46;95226.19;5021784;28;20033;-75
2020/12/24 02:52:14;;;;;;;12.00;8.10;;;;;;;21.10;41.80;95217.03;5021992;28;20121;-75
2020/12/24 02:54:40;;;;;;;11.35;8.20;;;;;;;21.10;41.77;95219.75;5021201;28;20103;-75
2020/12/24 02:57:05;;;;;;;11.45;7.90;;;;;;;21.10;41.46;95211.63;5019463;28;20463;-75
2020/12/24 02:59:31;;;;;;;11.32;7.85;;;;;;;21.09;41.74;95210.16;5021762;28;20494;-74
2020/12/24 03:01:56;;;;;;;10.32;7.18;;;;;;;21.09;41.91;95210.16;5022526;28;20059;-74
2020/12/24 03:04:22;;;;;;;10.75;7.35;;;;;;;21.05;41.62;95206.91;5021966;28;20025;-75
2020/12/24 03:06:47;;;;;;;10.50;7.20;;;;;;;20.89;41.64;95178.97;5037227;28;20499;-74
2020/12/24 03:09:13;;;;;;;11.15;7.85;;;;;;;21.06;41.80;95202.97;5021041;28;20543;-75
2020/12/24 03:11:43;;;;;;;10.25;7.63;;;;;;;21.06;41.82;95205.69;5023196;28;20029;-74
2020/12/24 03:14:09;;;;;;;10.05;7.35;;;;;;;21.05;41.13;95198.78;5020366;28;20037;-75
2020/12/24 03:16:34;;;;;;;12.32;8.27;;;;;;;21.03;41.60;95206.69;5025367;28;20025;-75
2020/12/24 03:19:00;;;;;;;12.60;7.53;;;;;;;21.03;41.95;95203.97;5040615;28;20037;-75
2020/12/24 03:21:25;;;;;;;10.52;7.68;;;;;;;21.04;41.54;95207.41;5025441;28;20037;-75
2020/12/24 03:23:50;;;;;;;9.15;7.00;;;;;;;21.03;41.68;95206.69;5025338;28;20444;-76
2020/12/24 03:26:16;;;;;;;12.27;7.30;;;;;;;21.01;41.78;95203.69;5025232;28;20025;-75
2020/12/24 03:28:41;;;;;;;11.55;7.35;;;;;;;20.97;41.64;95207.91;5026400;28;20034;-76
2020/12/24 03:31:06;;;;;;;10.70;7.35;;;;;;;21.01;41.80;95213.81;5025707;28;20025;-75
2020/12/24 03:33:32;;;;;;;11.27;7.35;;;;;;;21.00;41.65;95212.31;5024166;28;23568;-75
2020/12/24 03:35:57;;;;;;;13.05;8.07;;;;;;;20.96;41.57;95207.13;5040559;28;20030;-78
2020/12/24 03:38:23;;;;;;;10.98;7.13;;;;;;;20.98;41.65;95210.13;5024529;28;20490;-75
2020/12/24 03:40:48;;;;;;;9.43;7.38;;;;;;;20.82;42.00;95190.28;5025799;28;20026;-75
2020/12/24 03:43:13;;;;;;;10.75;7.18;;;;;;;20.96;41.76;95218.00;5024649;28;20536;-75
2020/12/24 03:45:39;;;;;;;11.65;7.80;;;;;;;20.96;41.80;95211.09;5023509;28;20014;-74
2020/12/24 03:48:04;;;;;;;11.00;7.63;;;;;;;20.96;41.59;95216.53;5024491;28;20037;-76
2020/12/24 03:50:30;;;;;;;9.57;6.72;;;;;;;20.95;41.60;95204.19;5025396;28;20048;-75
2020/12/24 03:52:55;;;;;;;11.80;7.53;;;;;;;20.87;41.62;95190.31;5023631;28;20036;-76
2020/12/24 03:55:20;;;;;;;11.23;7.57;;;;;;;21.07;41.74;95207.16;5007233;28;20407;-76
2020/12/24 03:57:46;;;;;;;11.23;7.32;;;;;;;21.14;41.78;95203.97;5025129;28;20052;-75
2020/12/24 04:00:11;;;;;;;11.65;7.47;;;;;;;21.14;41.70;95195.84;5039833;28;20018;-75
2020/12/24 04:02:37;;;;;;;10.88;6.80;;;;;;;21.14;41.45;95203.97;5023925;28;20033;-75
2020/12/24 04:05:02;;;;;;;10.18;7.20;;;;;;;21.27;41.61;95225.25;5024733;28;20583;-74
2020/12/24 04:07:28;;;;;;;11.43;7.80;;;;;;;21.25;41.38;95203.28;5024889;28;20053;-74
2020/12/24 04:09:53;;;;;;;9.02;6.90;;;;;;;21.32;41.34;95217.13;5039683;28;20556;-75
2020/12/24 04:12:18;;;;;;;10.73;7.28;;;;;;;21.36;41.28;95212.19;5024918;28;20502;-76
2020/12/24 04:14:44;;;;;;;10.80;7.55;;;;;;;21.40;41.35;95207.25;5024235;28;20033;-74
2020/12/24 04:17:10;;;;;;;9.63;6.60;;;;;;;21.44;41.21;95218.63;5023145;28;20029;-76
2020/12/24 04:19:35;;;;;;;9.75;6.60;;;;;;;21.46;41.13;95213.47;5023944;28;20026;-75
2020/12/24 04:22:01;;;;;;;11.10;7.20;;;;;;;21.49;41.12;95209.75;5023139;28;20034;-75
2020/12/24 04:24:26;;;;;;;9.52;6.85;;;;;;;21.29;40.88;95174.63;5023578;28;20042;-74
2020/12/24 04:26:54;;;;;;;10.00;6.75;;;;;;;21.54;41.06;95201.63;5024524;28;20087;-75
2020/12/24 04:29:20;;;;;;;9.93;6.70;;;;;;;21.57;40.87;95208.06;5024709;28;20029;-75
2020/12/24 04:31:45;;;;;;;9.57;6.97;;;;;;;21.59;40.96;95209.03;5023705;28;20075;-77
2020/12/24 04:34:11;;;;;;;10.50;7.40;;;;;;;21.62;41.02;95201.88;5024313;28;20096;-74
2020/12/24 04:36:36;;;;;;;10.65;7.38;;;;;;;21.64;40.80;95204.84;5023244;28;20033;-75
2020/12/24 04:39:03;;;;;;;10.32;7.10;;;;;;;21.64;40.74;95210.28;5039812;28;20037;-75
2020/12/24 04:41:28;;;;;;;9.63;6.53;;;;;;;21.66;40.77;95207.81;5024007;28;20028;-74
2020/12/24 04:43:54;;;;;;;10.90;7.88;;;;;;;21.60;40.95;95198.94;5055032;28;20057;-75
2020/12/24 04:46:19;;;;;;;10.23;6.68;;;;;;;21.62;40.71;95201.88;5039753;28;20026;-75
2020/12/24 04:48:45;;;;;;;8.43;6.05;;;;;;;21.66;40.93;95207.81;5023252;28;20524;-75
2020/12/24 04:51:11;;;;;;;9.80;6.72;;;;;;;21.67;40.84;95198.41;5005459;28;20413;-74
2020/12/24 04:53:37;;;;;;;11.35;7.15;;;;;;;21.63;40.64;95192.50;5022870;28;20033;-74
2020/12/24 04:56:02;;;;;;;9.75;6.50;;;;;;;21.68;40.29;95206.09;5022587;28;20052;-74
2020/12/24 04:58:28;;;;;;;10.00;6.80;;;;;;;21.71;40.58;95193.50;5025361;28;20033;-74
2020/12/24 05:00:53;;;;;;;8.88;6.50;;;;;;;21.68;40.69;95191.75;5021894;28;20025;-74
2020/12/24 05:03:19;;;;;;;10.38;7.00;;;;;;;21.75;40.62;95200.16;5022466;28;20520;-76
2020/12/24 05:05:45;;;;;;;8.95;6.45;;;;;;;21.76;40.30;95196.19;5022918;28;20025;-74
2020/12/24 05:08:10;;;;;;;9.10;7.00;;;;;;;21.76;40.40;95190.03;5023561;28;21741;-75
2020/12/24 05:10:36;;;;;;;9.43;6.50;;;;;;;21.76;40.58;95184.59;5023514;28;20022;-75
2020/12/24 05:13:15;;;;;;;9.23;6.45;;;;;;;21.82;40.50;95201.63;5004955;28;20085;-74
2020/12/24 05:15:41;;;;;;;9.07;6.72;;;;;;;21.84;40.46;95196.44;5022612;28;20033;-74
2020/12/24 05:18:19;;;;;;;9.00;6.88;;;;;;;21.85;40.29;95203.38;5022562;28;20037;-74
2020/12/24 05:20:45;;;;;;;10.02;6.78;;;;;;;21.86;40.33;95199.44;5022249;28;20062;-74
2020/12/24 05:23:15;;;;;;;9.93;6.72;;;;;;;21.83;40.40;95192.25;5021321;28;20038;-76
2020/12/24 05:25:41;;;;;;;9.65;6.30;;;;;;;21.88;40.30;95203.13;5021541;28;20053;-75
2020/12/24 05:28:06;;;;;;;9.35;6.72;;;;;;;21.92;40.21;95205.59;5021861;28;20036;-75
2020/12/24 05:30:32;;;;;;;10.10;6.70;;;;;;;21.91;40.16;95206.84;5021965;28;20456;-75
2020/12/24 05:32:58;;;;;;;9.50;6.68;;;;;;;21.90;40.20;95195.22;5038157;28;20509;-74
2020/12/24 05:35:24;;;;;;;8.75;6.10;;;;;;;21.90;40.33;95194.47;5036092;28;20034;-75
2020/12/24 05:37:50;;;;;;;9.40;6.20;;;;;;;21.89;40.38;95182.13;5053238;28;20084;-75
2020/12/24 05:40:19;;;;;;;8.30;5.82;;;;;;;21.85;40.33;95176.19;5021755;28;20490;-74
2020/12/24 05:42:48;;;;;;;10.18;7.05;;;;;;;21.93;40.14;95189.53;5020260;28;20025;-77
2020/12/24 05:45:18;;;;;;;10.10;6.82;;;;;;;21.89;40.31;95180.13;5022415;28;20044;-75
2020/12/24 05:47:43;;;;;;;7.65;5.70;;;;;;;21.83;40.52;95167.78;5021264;28;20029;-75
2020/12/24 05:50:27;;;;;;;9.68;6.30;;;;;;;21.97;40.10;95184.59;5023075;28;20064;-74
2020/12/24 05:53:03;;;;;;;8.57;5.78;;;;;;;21.95;40.21;95195.22;5022245;28;20052;-75
2020/12/24 05:55:28;;;;;;;8.70;6.05;;;;;;;21.97;40.22;95192.00;5020931;28;20030;-75
2020/12/24 05:57:54;;;;;;;8.85;5.90;;;;;;;21.98;40.08;95183.34;5006353;28;20105;-75
2020/12/24 06:00:23;;;;;;;8.95;6.53;;;;;;;21.98;40.20;95186.06;5021149;28;20064;-75
2020/12/24 06:02:53;;;;;;;9.85;6.68;;;;;;;21.98;40.09;95175.19;5021024;28;20024;-75
2020/12/24 06:05:19;;;;;;;8.73;6.13;;;;;;;21.94;40.21;95161.13;5021356;28;20049;-74
2020/12/24 06:07:46;;;;;;;8.23;5.75;;;;;;;22.01;40.18;95179.63;5020063;28;20060;-75
2020/12/24 06:10:12;;;;;;;9.63;6.32;;;;;;;22.03;40.06;95182.63;5022089;28;20459;-74
2020/12/24 06:12:49;;;;;;;9.13;5.90;;;;;;;21.99;40.20;95173.97;5021632;28;20033;-74
2020/12/24 06:15:15;;;;;;;7.97;5.82;;;;;;;22.06;40.13;95187.06;5020883;28;20111;-74
2020/12/24 06:17:41;;;;;;;10.18;6.07;;;;;;;22.03;40.29;95171.72;5021515;28;20026;-75
2020/12/24 06:20:06;;;;;;;9.45;6.43;;;;;;;22.12;40.18;95174.19;5020570;28;20883;-75
2020/12/24 06:22:31;;;;;;;8.05;5.93;;;;;;;21.98;40.30;95152.69;5020275;28;20493;-75
2020/12/24 06:24:57;;;;;;;9.13;6.10;;;;;;;22.13;40.07;95170.22;5020632;28;20521;-75
2020/12/24 06:27:32;;;;;;;8.35;5.75;;;;;;;22.25;40.04;95181.88;5021899;28;20034;-74
2020/12/24 06:30:06;;;;;;;8.77;6.00;;;;;;;22.33;39.81;95186.31;5022392;28;20124;-74
2020/12/24 06:32:35;;;;;;;8.98;6.05;;;;;;;22.40;39.48;95180.34;5022686;28;20076;-74
2020/12/24 06:35:01;;;;;;;8.80;6.18;;;;;;;22.52;39.45;95184.50;5021045;28;20117;-75
2020/12/24 06:37:26;;;;;;;8.00;5.95;;;;;;;22.60;39.10;95180.03;5023761;28;20041;-75
2020/12/24 06:39:53;;;;;;;8.15;5.13;;;;;;;22.64;39.17;95175.06;5022464;28;20025;-74
2020/12/24 06:42:37;;;;;;;8.70;6.15;;;;;;;22.78;39.06;95179.47;5039043;28;20461;-75
2020/12/24 06:45:04;;;;;;;8.23;5.55;;;;;;;22.84;38.87;95172.78;5024024;28;20036;-74
2020/12/24 06:47:29;;;;;;;8.05;5.88;;;;;;;22.94;38.72;95176.72;5019921;28;20030;-73
2020/12/24 06:49:54;;;;;;;8.38;5.72;;;;;;;23.07;38.47;95191.25;5021752;28;20091;-74
2020/12/24 06:52:30;;;;;;;8.57;5.70;;;;;;;23.17;38.28;95184.28;5025710;28;20025;-73
2020/12/24 06:55:12;;;;;;;9.38;5.50;;;;;;;23.23;38.20;95179.53;5041215;28;20092;-76
2020/12/24 06:57:37;;;;;;;7.80;5.80;;;;;;;23.37;37.89;95194.81;4991412;28;20056;-76
2020/12/24 07:00:18;;;;;;;7.78;5.35;;;;;;;23.46;37.85;95189.06;5049665;28;20028;-77
2020/12/24 07:02:47;;;;;;;7.65;5.55;;;;;;;23.49;37.82;95182.59;5047404;28;20108;-77
2020/12/24 07:05:41;;;;;;;8.30;5.72;;;;;;;23.64;37.47;95204.84;5028606;28;20760;-75
2020/12/24 07:08:08;;;;;;;9.23;6.10;;;;;;;23.62;37.63;95182.78;5048117;28;20053;-77
2020/12/24 07:10:46;;;;;;;7.82;5.63;;;;;;;23.76;37.29;95189.88;5045189;28;20408;-77
2020/12/24 07:13:34;;;;;;;8.57;5.68;;;;;;;23.86;36.85;95195.25;5036947;28;20650;-76
2020/12/24 07:15:59;;;;;;;8.15;5.82;;;;;;;23.89;37.04;95172.41;5048832;28;20059;-79
2020/12/24 07:18:27;;;;;;;7.80;5.93;;;;;;;23.97;36.34;95178.78;5047348;28;20021;-78
2020/12/24 07:20:53;;;;;;;8.82;5.63;;;;;;;24.05;36.64;95177.00;5044042;28;20040;-77
2020/12/24 07:23:29;;;;;;;6.95;5.43;;;;;;;24.11;36.18;95188.59;5047487;28;20017;-77
2020/12/24 07:25:54;;;;;;;8.60;5.40;;;;;;;24.20;36.31;95180.06;5047824;28;20045;-77
2020/12/24 07:28:19;;;;;;;8.48;5.68;;;;;;;24.20;36.39;95174.63;5047594;28;20456;-76
2020/12/24 07:31:06;;;;;;;8.85;6.03;;;;;;;24.31;36.14;95174.50;5047171;28;20025;-76
2020/12/24 07:33:31;;;;;;;8.77;5.63;;;;;;;24.32;35.84;95169.78;5028287;28;20501;-76
2020/12/24 07:35:57;;;;;;;7.30;5.72;;;;;;;24.35;36.11;95158.63;5028478;28;20021;-80
2020/12/24 07:38:26;;;;;;;7.93;5.45;;;;;;;24.37;35.68;95167.03;5047446;28;20017;-76
2020/12/24 07:40:52;;;;;;;7.07;5.43;;;;;;;24.48;36.15;95175.09;5048345;28;20029;-75
2020/12/24 07:43:17;;;;;;;8.18;5.70;;;;;;;24.47;35.91;95160.00;5045865;28;20029;-76
2020/12/24 07:45:43;;;;;;;8.48;5.75;;;;;;;24.51;36.07;95165.88;5049060;28;20025;-78
2020/12/24 07:48:22;;;;;;;9.15;5.78;;;;;;;24.55;36.04;95160.88;5027749;28;20089;-76
2020/12/24 07:50:48;;;;;;;8.68;5.97;;;;;;;24.61;36.04;95170.47;5059960;28;20167;-76
2020/12/24 07:53:20;;;;;;;8.18;5.38;;;;;;;24.65;35.74;95173.69;5046201;28;20584;-76
2020/12/24 07:55:46;;;;;;;7.47;6.18;;;;;;;24.64;35.71;95171.47;5079327;28;20045;-76
2020/12/24 07:58:13;;;;;;;18.65;10.60;;;;;;;24.39;34.65;95164.53;5062604;28;20386;-75
2020/12/24 08:00:49;;;;;;;23.75;17.45;;;;;;;24.30;32.05;95175.75;5045920;28;20025;-75
2020/12/24 08:03:18;;;;;;;17.35;11.55;;;;;;;24.02;35.16;95164.38;5027827;28;21134;-81
2020/12/24 08:05:44;;;;;;;10.07;7.10;;;;;;;24.04;36.80;95170.03;5028362;28;20468;-80
2020/12/24 08:08:12;;;;;;;10.10;6.93;;;;;;;24.19;36.85;95172.41;5062311;28;20037;-82
2020/12/24 08:10:41;;;;;;;9.77;6.47;;;;;;;24.24;36.84;95180.50;5049666;28;20029;-79
2020/12/24 08:13:08;;;;;;;9.40;6.57;;;;;;;24.28;37.29;95172.78;5027053;28;20032;-78
2020/12/24 08:15:35;;;;;;;10.05;6.57;;;;;;;24.18;37.41;95166.19;5047104;28;20047;-77
2020/12/24 08:18:01;;;;;;;9.60;6.93;;;;;;;24.12;37.13;95151.84;5045400;28;20005;-78
2020/12/24 08:20:57;;;;;;;11.05;6.65;;;;;;;24.26;36.91;95183.50;5042580;28;20029;-72
2020/12/24 08:23:30;;;;;;;10.57;6.82;;;;;;;24.26;36.79;95167.13;5045898;28;20036;-76
2020/12/24 08:25:56;;;;;;;9.55;6.50;;;;;;;24.38;37.12;95173.97;5078650;28;20033;-77
2020/12/24 08:28:23;;;;;;;16.85;9.27;;;;;;;24.24;36.70;95174.31;5046396;28;20059;-78
2020/12/24 08:30:48;;;;;;;15.23;9.02;;;;;;;23.99;36.33;95173.56;5027747;28;20029;-79
2020/12/24 08:33:14;;;;;;;16.52;9.77;;;;;;;23.91;36.32;95169.91;5044190;28;20023;-78
2020/12/24 08:35:39;;;;;;;14.27;10.18;;;;;;;23.83;36.29;95173.69;5044431;28;20033;-77
2020/12/24 08:38:15;;;;;;;19.42;11.48;;;;;;;23.72;36.39;95167.59;5047285;28;20450;-77
2020/12/24 08:40:40;;;;;;;16.45;10.95;;;;;;;23.57;36.65;95167.16;5044113;28;20158;-76
2020/12/24 08:43:07;;;;;;;21.63;12.82;;;;;;;23.39;36.14;95162.34;5046733;28;20017;-77
2020/12/24 08:45:33;;;;;;;17.38;12.65;;;;;;;23.29;36.50;95163.91;5045054;28;20061;-76
2020/12/24 08:47:58;;;;;;;20.92;13.55;;;;;;;23.17;36.56;95173.38;5046981;28;20119;-78
2020/12/24 08:50:33;;;;;;;18.90;13.02;;;;;;;23.15;36.91;95175.88;5044603;28;20037;-77
2020/12/24 08:52:59;;;;;;;20.38;13.25;;;;;;;23.00;36.57;95161.09;5047051;28;20112;-77
2020/12/24 08:55:28;;;;;;;20.25;14.02;;;;;;;22.91;36.84;95159.38;5028119;28;20024;-79
2020/12/24 08:57:54;;;;;;;20.73;13.50;;;;;;;22.84;36.81;95161.13;5047331;28;20853;-77
2020/12/24 09:00:20;;;;;;;22.65;15.10;;;;;;;22.79;37.05;95159.19;5043731;28;20033;-80
2020/12/24 09:02:46;;;;;;;21.08;14.00;;;;;;;22.67;36.50;95144.13;5045263;28;20033;-77
2020/12/24 09:05:12;;;;;;;21.40;15.35;;;;;;;22.63;37.27;95140.91;5046105;28;20092;-80
2020/12/24 09:07:44;;;;;;;20.73;15.13;;;;;;;22.57;37.12;95140.19;5045560;28;20127;-77
2020/12/24 09:10:15;;;;;;;22.50;15.25;;;;;;;22.52;37.11;95140.97;5062050;28;20025;-76
2020/12/24 09:12:42;;;;;;;22.13;15.55;;;;;;;22.43;37.31;95122.97;5058765;28;20079;-77
2020/12/24 09:15:08;;;;;;;24.70;15.60;;;;;;;22.40;37.11;95125.91;5043260;28;20025;-78
2020/12/24 09:17:34;;;;;;;22.88;15.60;;;;;;;22.37;37.22;95116.03;5044435;28;20040;-78
2020/12/24 09:20:02;;;;;;;22.63;15.65;;;;;;;22.35;37.40;95109.63;5042547;28;20021;-77
2020/12/24 09:22:28;;;;;;;22.42;15.43;;;;;;;22.25;37.41;95106.44;5044308;28;20449;-77
2020/12/24 09:24:53;;;;;;;23.15;16.13;;;;;;;22.19;37.40;95097.50;5044305;28;20040;-77
2020/12/24 09:27:19;;;;;;;23.95;15.73;;;;;;;22.14;37.47;95101.00;5027295;28;20040;-77
2020/12/24 09:29:44;;;;;;;21.00;15.43;;;;;;;22.15;37.57;95099.78;5045860;28;20036;-76
2020/12/24 09:32:09;;;;;;;23.38;17.40;;;;;;;22.14;37.56;95103.72;5059396;28;20040;-78
2020/12/24 09:34:35;;;;;;;23.63;17.30;;;;;;;22.06;37.59;95100.03;5042374;28;20028;-77
2020/12/24 09:37:00;;;;;;;24.85;16.85;;;;;;;22.00;37.60;95085.72;5042192;28;20037;-79
2020/12/24 09:39:25;;;;;;;25.08;17.10;;;;;;;21.97;37.55;95084.00;5041369;28;20025;-77
2020/12/24 09:41:51;;;;;;;23.02;15.95;;;;;;;22.00;37.57;95093.88;5042831;28;20382;-78
2020/12/24 09:44:17;;;;;;;21.88;16.23;;;;;;;21.91;37.70;95073.63;5041308;28;20029;-78
2020/12/24 09:46:42;;;;;;;23.88;17.00;;;;;;;21.88;37.72;95080.06;5041199;28;20025;-77
2020/12/24 09:49:07;;;;;;;28.60;17.77;;;;;;;21.86;37.57;95079.81;5042583;28;20032;-79
2020/12/24 09:51:36;;;;;;;24.90;17.40;;;;;;;21.89;37.86;95073.38;5041618;28;20037;-77
2020/12/24 09:54:05;;;;;;;30.70;19.33;;;;;;;21.86;37.58;95063.50;5042437;28;20028;-77
2020/12/24 09:56:30;;;;;;;31.73;19.88;;;;;;;21.80;37.75;95065.50;5044519;28;20127;-77
2020/12/24 09:58:55;;;;;;;28.63;19.13;;;;;;;21.82;37.90;95063.00;5043258;28;20029;-78
2020/12/24 10:01:21;;;;;;;31.95;21.38;;;;;;;21.80;37.97;95054.63;5040095;28;20040;-78
2020/12/24 10:03:47;;;;;;;35.65;23.10;;;;;;;21.77;37.80;95055.63;5042183;28;20083;-79
2020/12/24 10:06:13;;;;;;;32.75;23.67;;;;;;;21.68;37.88;95036.84;5059312;28;20037;-78
2020/12/24 10:08:38;;;;;;;36.20;23.88;;;;;;;21.72;37.88;95048.19;5042720;28;20049;-78
2020/12/24 10:11:04;;;;;;;35.45;24.77;;;;;;;21.70;38.01;95047.97;5058887;28;20043;-78
2020/12/24 10:13:29;;;;;;;35.00;24.33;;;;;;;21.70;37.89;95045.25;5044052;28;20029;-78
2020/12/24 10:15:54;;;;;;;37.10;24.88;;;;;;;21.69;38.03;95032.91;5043630;28;20033;-81
2020/12/24 10:18:20;;;;;;;37.03;25.20;;;;;;;21.69;38.14;95028.19;5045668;28;20063;-79
2020/12/24 10:20:47;;;;;;;37.10;25.85;;;;;;;21.66;37.84;95028.47;5043731;28;20013;-78
2020/12/24 10:23:12;;;;;;;36.25;24.83;;;;;;;21.57;37.80;95020.56;5043875;28;20051;-79
2020/12/24 10:25:39;;;;;;;40.13;25.80;;;;;;;21.61;37.80;95015.63;5047119;28;20485;-80
2020/12/24 10:28:05;;;;;;;37.30;26.83;;;;;;;21.61;37.68;95015.63;5046549;28;20507;-78
2020/12/24 10:30:30;;;;;;;41.20;26.92;;;;;;;21.59;37.78;95012.66;5048396;28;20111;-79
2020/12/24 10:32:56;;;;;;;36.28;25.55;;;;;;;21.62;37.74;95006.22;5044044;28;20457;-78
2020/12/24 10:35:21;;;;;;;37.38;25.83;;;;;;;21.60;37.79;95006.00;5047203;28;20416;-79
2020/12/24 10:37:47;;;;;;;37.38;25.67;;;;;;;21.58;37.88;95005.72;5048507;28;20051;-79
2020/12/24 10:40:12;;;;;;;37.90;24.77;;;;;;;21.55;37.82;95001.28;5061751;28;20029;-77
2020/12/24 10:42:40;;;;;;;38.65;25.30;;;;;;;21.51;37.72;94985.25;5047278;28;20024;-78
2020/12/24 10:45:05;;;;;;;39.15;26.00;;;;;;;21.58;37.66;94994.88;5046802;28;20086;-78
2020/12/24 10:47:31;;;;;;;35.95;25.48;;;;;;;21.57;37.97;94993.41;5062849;28;20041;-79
2020/12/24 10:49:58;;;;;;;37.30;25.60;;;;;;;21.57;38.06;94993.41;5047479;28;20098;-79
2020/12/24 10:52:23;;;;;;;38.60;27.38;;;;;;;21.59;37.82;94980.06;5046350;28;20212;-78
2020/12/24 10:54:49;;;;;;;39.00;26.17;;;;;;;21.44;37.65;94957.81;5043384;28;20504;-77
2020/12/24 10:57:14;;;;;;;39.85;25.70;;;;;;;21.59;37.61;94977.34;5045261;28;20025;-77
2020/12/24 10:59:39;;;;;;;39.80;26.83;;;;;;;21.58;37.83;94976.59;5046628;28;20069;-78
2020/12/24 11:02:05;;;;;;;36.22;25.15;;;;;;;21.56;37.75;94978.34;5045937;28;20087;-78
2020/12/24 11:04:31;;;;;;;34.30;24.40;;;;;;;21.55;37.71;94974.13;5046514;28;20048;-79
2020/12/24 11:06:56;;;;;;;34.97;24.75;;;;;;;21.50;37.90;94966.72;5045453;28;20053;-77
2020/12/24 11:09:22;;;;;;;34.53;24.75;;;;;;;21.54;37.81;94959.06;5046255;28;20029;-78
2020/12/24 11:11:47;;;;;;;36.92;25.73;;;;;;;21.52;37.71;94962.28;5026907;28;20040;-78
2020/12/24 11:14:12;;;;;;;35.10;25.23;;;;;;;21.50;37.76;94961.31;5061353;28;20771;-78
2020/12/24 11:16:38;;;;;;;37.08;25.38;;;;;;;21.42;37.78;94943.25;5047191;28;21827;-79
2020/12/24 11:19:03;;;;;;;35.92;25.33;;;;;;;21.46;37.90;94949.94;5054058;28;20040;-78
2020/12/24 11:21:32;;;;;;;34.20;24.38;;;;;;;21.42;37.91;94941.31;5050884;28;20060;-79
2020/12/24 11:24:04;;;;;;;35.80;24.83;;;;;;;21.44;38.07;94936.09;5033089;28;20056;-78
2020/12/24 11:26:30;;;;;;;34.80;24.83;;;;;;;21.57;37.79;94939.78;5047290;28;20404;-78